Time;durP1;ratioP1;P1;durP2;ratioP2;P2;SDS_P1;SDS_P2;PMS_P1;PMS_P2;Temp;Humidity;BMP_temperature;BMP_pressure;BME280_temperature;BME280_humidity;BME280_pressure;Samples;Min_cycle;Max_cycle;Signal;HPM_P1;HPM_P2
2022/03/15 00:00:36;;;;;;;12.27;7.97;;;;;;;8.20;49.58;99174.44;8316820;28;20233;-65
2022/03/15 00:04:39;;;;;;;12.03;8.50;;;;;;;8.12;49.34;99181.44;8317656;28;20264;-65
2022/03/15 00:08:44;;;;;;;12.57;8.60;;;;;;;8.12;49.63;99178.03;8317094;28;20241;-66
2022/03/15 00:12:48;;;;;;;11.10;8.80;;;;;;;8.14;49.60;99177.13;8317044;28;20240;-65
2022/03/15 00:16:51;;;;;;;11.03;8.93;;;;;;;8.11;49.58;99166.84;8317357;28;20242;-66
2022/03/15 00:20:54;;;;;;;11.63;8.60;;;;;;;8.24;49.42;99162.34;8317085;28;20243;-65
2022/03/15 00:24:58;;;;;;;13.10;9.23;;;;;;;8.13;49.77;99165.09;8317003;28;20240;-65
2022/03/15 00:29:01;;;;;;;14.07;9.33;;;;;;;8.12;50.06;99175.44;8317204;28;20232;-65
2022/03/15 00:33:04;;;;;;;11.23;8.90;;;;;;;8.23;49.47;99169.22;8316633;28;20236;-65
2022/03/15 00:37:07;;;;;;;12.07;8.93;;;;;;;8.19;49.43;99159.84;8316505;28;20229;-64
2022/03/15 00:41:11;;;;;;;11.30;8.17;;;;;;;8.15;49.28;99153.03;8316385;28;20233;-64
2022/03/15 00:45:14;;;;;;;14.47;8.90;;;;;;;7.96;49.15;99133.56;8316390;28;20229;-64
2022/03/15 00:49:17;;;;;;;14.20;8.10;;;;;;;8.02;48.93;99148.94;8316279;28;20232;-64
2022/03/15 00:53:20;;;;;;;12.20;8.63;;;;;;;8.06;48.91;99132.53;8316145;28;20243;-64
2022/03/15 00:57:24;;;;;;;13.63;8.13;;;;;;;7.98;48.93;99137.81;8315936;28;20240;-64
2022/03/15 01:01:27;;;;;;;14.93;9.00;;;;;;;8.06;49.06;99134.25;8315801;28;20248;-64
2022/03/15 01:05:30;;;;;;;12.63;9.00;;;;;;;7.94;49.02;99124.97;8315803;28;20236;-64
2022/03/15 01:09:35;;;;;;;11.10;9.20;;;;;;;7.91;48.77;99133.59;8315179;28;20244;-65
2022/03/15 01:13:39;;;;;;;15.40;8.80;;;;;;;7.89;49.08;99125.03;8315466;28;20244;-64
2022/03/15 01:17:43;;;;;;;9.67;8.40;;;;;;;7.77;49.15;99126.09;8315842;28;20539;-64
2022/03/15 01:21:46;;;;;;;10.63;8.43;;;;;;;7.71;49.25;99125.28;8315488;28;20236;-64
2022/03/15 01:25:49;;;;;;;11.73;8.60;;;;;;;7.65;49.91;99123.66;8315489;28;20239;-64
2022/03/15 01:29:53;;;;;;;15.17;9.33;;;;;;;7.63;49.76;99123.72;8315241;28;20542;-64
2022/03/15 01:33:56;;;;;;;12.20;8.50;;;;;;;7.68;49.60;99117.63;8315678;28;20236;-65
2022/03/15 01:37:59;;;;;;;11.80;7.70;;;;;;;7.59;50.30;99121.19;8315202;28;20236;-64
2022/03/15 01:42:02;;;;;;;13.63;8.13;;;;;;;7.70;50.15;99116.72;8314787;28;20331;-64
2022/03/15 01:46:07;;;;;;;11.03;8.00;;;;;;;7.56;50.09;99109.19;8317090;28;20430;-64
2022/03/15 01:50:10;;;;;;;11.10;7.97;;;;;;;7.56;50.43;99103.19;8317169;28;20207;-64
2022/03/15 01:54:13;;;;;;;10.43;8.47;;;;;;;7.63;50.33;99103.09;8317061;28;20200;-64
2022/03/15 01:58:16;;;;;;;12.20;8.07;;;;;;;7.56;50.00;99098.03;8316389;28;20201;-64
2022/03/15 02:02:21;;;;;;;8.63;7.03;;;;;;;7.57;50.11;99094.56;8316418;28;20536;-64
2022/03/15 02:06:24;;;;;;;10.40;7.40;;;;;;;7.53;50.02;99096.34;8315105;28;20587;-64
2022/03/15 02:10:27;;;;;;;12.00;7.60;;;;;;;7.53;50.07;99090.34;8314403;28;20240;-64
2022/03/15 02:14:30;;;;;;;12.40;7.93;;;;;;;7.66;49.73;99101.34;8314315;28;20402;-64
2022/03/15 02:18:34;;;;;;;13.77;8.17;;;;;;;7.56;49.84;99085.16;8313903;28;20224;-65
2022/03/15 02:22:39;;;;;;;9.67;7.70;;;;;;;7.49;49.79;99079.22;8314073;28;20248;-64
2022/03/15 02:26:41;;;;;;;10.93;8.17;;;;;;;7.46;49.73;99078.41;8314307;28;20240;-64
2022/03/15 02:30:45;;;;;;;16.23;8.00;;;;;;;7.43;49.93;99082.72;8314105;28;20236;-64
2022/03/15 02:34:47;;;;;;;14.00;8.20;;;;;;;7.56;49.44;99085.16;8314372;28;20232;-64
2022/03/15 02:38:52;;;;;;;8.97;7.07;;;;;;;7.46;49.42;99088.69;8314236;28;20631;-65
2022/03/15 02:42:56;;;;;;;11.43;7.80;;;;;;;7.40;49.39;99069.88;8313986;28;20232;-64
2022/03/15 02:46:58;;;;;;;9.77;7.60;;;;;;;7.34;50.20;99069.13;8314094;28;20422;-65
2022/03/15 02:51:07;;;;;;;11.33;7.60;;;;;;;7.42;50.52;99083.63;8314078;28;20304;-65
2022/03/15 02:55:13;;;;;;;10.77;7.67;;;;;;;7.28;50.69;99072.63;8313860;28;20416;-65
2022/03/15 02:59:16;;;;;;;10.07;7.47;;;;;;;7.41;50.45;99066.44;8314021;28;20389;-65
2022/03/15 03:03:19;;;;;;;12.50;8.80;;;;;;;7.38;50.53;99075.94;8313790;28;20251;-65
2022/03/15 03:07:23;;;;;;;13.63;8.60;;;;;;;7.42;50.45;99075.88;8314071;28;20233;-64
2022/03/15 03:11:27;;;;;;;12.07;7.80;;;;;;;7.42;50.47;99075.00;8318882;28;20540;-64
2022/03/15 03:15:32;;;;;;;11.97;7.73;;;;;;;7.27;50.78;99075.22;8319897;28;20236;-65
2022/03/15 03:19:39;;;;;;;12.17;8.00;;;;;;;7.36;49.78;99077.66;8318989;28;20296;-65
2022/03/15 03:23:42;;;;;;;13.17;8.20;;;;;;;7.32;49.98;99083.75;8319347;28;20233;-65
2022/03/15 03:27:47;;;;;;;11.57;8.43;;;;;;;7.31;50.02;99075.19;8319158;28;20308;-65
2022/03/15 03:31:50;;;;;;;11.67;8.27;;;;;;;7.37;50.00;99069.94;8318965;28;20232;-64
2022/03/15 03:35:54;;;;;;;11.60;8.50;;;;;;;7.41;50.40;99068.16;8318630;28;20532;-65
2022/03/15 03:39:57;;;;;;;10.97;8.23;;;;;;;7.23;50.62;99064.97;8318435;28;20239;-64
2022/03/15 03:44:01;;;;;;;12.80;8.50;;;;;;;7.28;50.51;99069.19;8318297;28;20237;-65
2022/03/15 03:48:07;;;;;;;14.13;8.97;;;;;;;7.29;50.65;99050.28;8318412;28;20248;-64
2022/03/15 03:52:12;;;;;;;12.30;8.37;;;;;;;7.23;51.08;99046.94;8318168;28;20514;-64
2022/03/15 03:56:15;;;;;;;11.20;8.47;;;;;;;7.32;51.13;99033.06;8317959;28;20228;-64
2022/03/15 04:00:20;;;;;;;12.00;7.93;;;;;;;7.33;51.24;99052.81;8318122;28;20401;-64
2022/03/15 04:04:24;;;;;;;11.30;8.07;;;;;;;7.38;50.50;99043.28;8317541;28;20237;-64
2022/03/15 04:08:27;;;;;;;12.50;7.77;;;;;;;7.17;51.82;99030.69;8317573;28;20241;-64
2022/03/15 04:12:30;;;;;;;10.70;7.83;;;;;;;7.29;51.61;99040.84;8317544;28;20244;-64
2022/03/15 04:16:35;;;;;;;11.73;8.17;;;;;;;7.29;51.43;99032.25;8317208;28;20232;-65
2022/03/15 04:20:38;;;;;;;11.63;9.23;;;;;;;7.33;50.65;99044.19;8316848;28;20427;-65
2022/03/15 04:24:41;;;;;;;12.23;8.97;;;;;;;7.33;50.23;99037.34;8316938;28;20428;-64
2022/03/15 04:28:44;;;;;;;12.63;9.03;;;;;;;7.33;50.98;99027.03;8317112;28;20240;-65
2022/03/15 04:32:48;;;;;;;12.57;8.70;;;;;;;7.43;50.86;99026.03;8317047;28;20248;-65
2022/03/15 04:36:51;;;;;;;12.27;8.80;;;;;;;7.36;50.79;99023.56;8316511;28;20256;-65
2022/03/15 04:40:53;;;;;;;13.87;9.07;;;;;;;7.26;51.34;99019.41;8316597;28;20417;-65
2022/03/15 04:44:56;;;;;;;12.37;8.60;;;;;;;7.29;51.35;99025.38;8316556;28;20429;-64
2022/03/15 04:49:01;;;;;;;13.10;8.77;;;;;;;7.34;50.80;99027.88;8316451;28;20574;-64
2022/03/15 04:53:04;;;;;;;14.00;8.80;;;;;;;7.38;50.45;99019.22;8316419;28;20420;-65
2022/03/15 04:57:07;;;;;;;12.93;8.47;;;;;;;7.28;50.82;99010.78;8316129;28;20228;-64
2022/03/15 05:01:10;;;;;;;13.90;8.90;;;;;;;7.30;50.96;99000.47;8316254;28;20228;-65
2022/03/15 05:05:14;;;;;;;15.93;8.63;;;;;;;7.32;51.13;98996.97;8315583;28;20292;-64
2022/03/15 05:09:17;;;;;;;12.50;8.13;;;;;;;7.15;51.22;98983.50;8315660;28;20239;-65
2022/03/15 05:13:20;;;;;;;12.73;8.20;;;;;;;7.24;51.22;98991.09;8315705;28;20237;-65
2022/03/15 05:17:24;;;;;;;12.90;7.40;;;;;;;7.30;51.25;98997.88;8315683;28;20232;-65
2022/03/15 05:21:28;;;;;;;11.37;8.70;;;;;;;7.26;50.70;98984.19;8315334;28;20248;-64
2022/03/15 05:25:31;;;;;;;12.87;7.80;;;;;;;7.08;51.58;98971.56;8314891;28;20252;-65
2022/03/15 05:29:34;;;;;;;15.93;8.10;;;;;;;7.25;51.69;98985.06;8315118;28;20558;-65
2022/03/15 05:33:38;;;;;;;11.97;8.53;;;;;;;7.25;50.87;98982.47;8314424;28;20547;-64
2022/03/15 05:37:42;;;;;;;11.43;8.27;;;;;;;7.26;50.77;98978.19;8314856;28;20237;-64
2022/03/15 05:41:45;;;;;;;13.03;8.60;;;;;;;7.27;50.79;98979.88;8314793;28;20233;-65
2022/03/15 05:45:48;;;;;;;13.20;9.27;;;;;;;7.18;51.13;98973.16;8314612;28;20233;-64
2022/03/15 05:49:51;;;;;;;10.47;8.30;;;;;;;7.21;50.79;98971.34;8314893;28;20248;-64
2022/03/15 05:53:55;;;;;;;12.40;7.97;;;;;;;7.18;51.60;98968.00;8314387;28;20228;-64
2022/03/15 05:57:58;;;;;;;11.87;8.13;;;;;;;7.25;51.58;98974.75;8313594;28;20229;-65
2022/03/15 06:02:01;;;;;;;12.23;8.50;;;;;;;7.21;51.23;98967.94;8312416;28;20240;-65
2022/03/15 06:06:04;;;;;;;16.17;8.90;;;;;;;7.21;51.37;98973.94;8282102;28;20233;-64
2022/03/15 06:10:11;;;;;;;11.93;9.03;;;;;;;7.32;51.25;98967.78;8281583;28;20237;-64
2022/03/15 06:14:14;;;;;;;15.03;8.50;;;;;;;7.28;51.91;98961.81;8281881;28;20244;-64
2022/03/15 06:18:17;;;;;;;13.40;8.40;;;;;;;7.39;51.78;98966.81;8306260;28;20233;-64
2022/03/15 06:22:20;;;;;;;11.60;8.20;;;;;;;7.36;51.99;98959.13;8314650;28;20239;-64
2022/03/15 06:26:24;;;;;;;11.07;7.63;;;;;;;7.41;52.18;98949.63;8314709;28;20240;-64
2022/03/15 06:30:28;;;;;;;12.30;8.23;;;;;;;7.48;52.07;98963.25;8314257;28;20229;-64
2022/03/15 06:34:31;;;;;;;15.63;8.63;;;;;;;7.51;51.78;98958.03;8314081;28;20549;-66
2022/03/15 06:38:34;;;;;;;14.63;8.67;;;;;;;7.63;51.74;98963.88;8314879;28;20233;-65
2022/03/15 06:42:39;;;;;;;18.73;8.27;;;;;;;7.66;51.46;98962.09;8315169;28;20535;-65
2022/03/15 06:46:43;;;;;;;12.30;7.90;;;;;;;7.69;51.67;98955.19;8320286;28;20243;-64
2022/03/15 06:50:46;;;;;;;12.97;8.27;;;;;;;7.72;52.15;98951.69;8320561;28;20554;-65
2022/03/15 06:54:49;;;;;;;11.17;7.63;;;;;;;7.86;51.91;98965.16;8319876;28;20241;-64
2022/03/15 06:58:53;;;;;;;13.17;8.00;;;;;;;7.94;51.68;98968.50;8319321;28;20232;-63
2022/03/15 07:02:56;;;;;;;11.27;8.20;;;;;;;8.08;51.58;98959.66;8319450;28;20232;-63
2022/03/15 07:06:59;;;;;;;18.00;8.80;;;;;;;7.99;51.79;98961.50;8319508;28;20229;-63
2022/03/15 07:11:03;;;;;;;13.33;8.77;;;;;;;8.12;51.57;98961.28;8319132;28;20233;-63
2022/03/15 07:15:09;;;;;;;13.53;8.03;;;;;;;8.19;51.45;98955.13;8319161;28;20236;-63
2022/03/15 07:19:12;;;;;;;11.27;7.73;;;;;;;8.23;51.79;98954.19;8319132;28;20335;-63
2022/03/15 07:23:14;;;;;;;9.97;6.40;;;;;;;8.28;51.97;98957.56;8319062;28;20240;-63
2022/03/15 07:27:17;;;;;;;8.87;6.40;;;;;;;8.29;52.24;98948.06;8319000;28;20229;-63
2022/03/15 07:31:22;;;;;;;12.27;7.07;;;;;;;8.45;52.61;98948.66;8319054;28;20236;-63
2022/03/15 07:35:25;;;;;;;12.83;7.47;;;;;;;8.46;52.71;98942.63;8318707;28;20241;-63
2022/03/15 07:39:28;;;;;;;9.80;7.00;;;;;;;8.65;52.46;98950.84;8318927;28;20233;-63
2022/03/15 07:43:31;;;;;;;11.60;7.97;;;;;;;8.74;52.26;98946.31;8317961;28;20237;-63
2022/03/15 07:47:37;;;;;;;17.17;8.80;;;;;;;8.80;52.18;98943.59;8318387;28;20239;-63
2022/03/15 07:51:39;;;;;;;13.57;8.73;;;;;;;8.97;52.30;98953.56;8318097;28;20309;-63
2022/03/15 07:55:42;;;;;;;13.20;8.70;;;;;;;8.99;52.29;98941.47;8317546;28;20236;-63
2022/03/15 07:59:46;;;;;;;18.43;9.33;;;;;;;9.05;52.22;98939.63;8318304;28;20233;-63
2022/03/15 08:03:52;;;;;;;13.23;8.80;;;;;;;9.17;52.54;98941.91;8317543;28;20237;-63
2022/03/15 08:07:56;;;;;;;21.93;12.23;;;;;;;9.29;52.33;98933.91;8317486;28;20237;-63
2022/03/15 08:11:59;;;;;;;18.03;11.47;;;;;;;9.46;52.37;98930.03;8317499;28;20570;-63
2022/03/15 08:16:03;;;;;;;15.73;8.70;;;;;;;9.45;51.92;98934.38;8317240;28;20244;-63
2022/03/15 08:20:09;;;;;;;14.27;6.73;;;;;;;9.59;51.59;98928.84;8317294;28;20569;-63
2022/03/15 08:24:12;;;;;;;9.93;6.40;;;;;;;9.70;51.34;98926.84;8316820;28;20252;-63
2022/03/15 08:28:15;;;;;;;11.40;6.30;;;;;;;9.32;52.01;98920.03;8316988;28;20232;-63
2022/03/15 08:32:18;;;;;;;11.77;5.73;;;;;;;9.02;52.54;98909.53;8317067;28;20244;-63
2022/03/15 08:36:22;;;;;;;17.83;13.17;;;;;;;9.28;52.21;98908.09;8316814;28;20550;-63
2022/03/15 08:40:25;;;;;;;20.37;12.33;;;;;;;9.66;51.89;98898.53;8316656;28;20232;-63
2022/03/15 08:44:28;;;;;;;18.70;12.07;;;;;;;9.81;52.25;98905.88;8316370;28;20236;-63
2022/03/15 08:48:31;;;;;;;12.87;6.90;;;;;;;9.53;52.80;98897.97;8315866;28;20235;-64
2022/03/15 08:52:36;;;;;;;11.80;6.03;;;;;;;9.79;52.53;98898.16;8316265;28;20424;-63
2022/03/15 08:56:41;;;;;;;37.40;22.63;;;;;;;10.00;51.67;98885.53;8315855;28;20247;-63
2022/03/15 09:00:45;;;;;;;26.93;16.40;;;;;;;10.21;52.03;98891.03;8315946;28;20244;-64
2022/03/15 09:04:48;;;;;;;21.50;12.43;;;;;;;10.39;52.09;98889.66;8313734;28;20237;-60
2022/03/15 09:08:53;;;;;;;10.63;7.43;;;;;;;10.54;51.09;98886.63;8314326;28;20252;-60
2022/03/15 09:12:56;;;;;;;14.20;8.93;;;;;;;10.31;51.30;98877.78;8315675;28;20232;-60
2022/03/15 09:16:59;;;;;;;12.33;7.23;;;;;;;10.58;50.87;98885.63;8315802;28;20423;-60
2022/03/15 09:21:02;;;;;;;9.83;6.80;;;;;;;10.84;50.58;98891.78;8315274;28;20316;-60
2022/03/15 09:25:07;;;;;;;15.93;6.30;;;;;;;11.14;49.53;98884.81;8315199;28;20235;-59
2022/03/15 09:29:12;;;;;;;14.17;6.60;;;;;;;11.11;49.12;98875.34;8315091;28;20237;-59
2022/03/15 09:33:15;;;;;;;13.00;6.80;;;;;;;11.06;50.01;98855.66;8315387;28;20229;-62
2022/03/15 09:37:19;;;;;;;16.27;6.57;;;;;;;10.39;51.31;98845.66;8315248;28;20228;-59
2022/03/15 09:41:26;;;;;;;11.97;6.43;;;;;;;10.79;50.90;98834.06;8315141;28;20482;-59
2022/03/15 09:45:32;;;;;;;15.03;6.97;;;;;;;10.70;51.42;98825.72;8314607;28;20572;-59
2022/03/15 09:49:35;;;;;;;17.87;4.77;;;;;;;12.48;65.36;98836.03;8314525;28;20236;-61
2022/03/15 09:53:41;;;;;;;13.50;6.03;;;;;;;11.73;48.70;98829.22;8314691;28;20256;-61
2022/03/15 09:57:46;;;;;;;14.17;5.63;;;;;;;12.07;47.24;98825.44;8314164;28;20240;-60
2022/03/15 10:01:51;;;;;;;14.10;8.47;;;;;;;11.68;48.38;98816.41;8313923;28;20224;-61
2022/03/15 10:05:54;;;;;;;12.80;7.23;;;;;;;11.66;48.84;98810.41;8314546;28;20236;-60
2022/03/15 10:09:57;;;;;;;13.83;7.07;;;;;;;11.59;48.90;98802.91;8313699;28;20244;-59
2022/03/15 10:14:01;;;;;;;18.40;6.60;;;;;;;11.39;48.41;98788.91;8314340;28;20546;-59
2022/03/15 10:18:05;;;;;;;15.10;6.87;;;;;;;11.42;48.34;98778.41;8316238;28;20235;-59
2022/03/15 10:22:09;;;;;;;14.10;7.10;;;;;;;11.21;49.01;98776.56;8320956;28;20232;-61
2022/03/15 10:26:23;;;;;;;11.10;7.00;;;;;;;11.38;49.18;98774.22;8320842;28;20428;-59
2022/03/15 10:30:29;;;;;;;10.43;6.37;;;;;;;11.00;49.88;98763.41;8320666;28;20255;-60
2022/03/15 10:34:32;;;;;;;14.47;7.23;;;;;;;11.10;50.88;98751.84;8320146;28;20421;-59
2022/03/15 10:38:45;;;;;;;12.93;6.20;;;;;;;11.87;48.16;98748.28;8320624;28;20398;-60
2022/03/15 10:42:48;;;;;;;15.50;7.13;;;;;;;11.64;48.41;98736.16;8319956;28;20233;-60
2022/03/15 10:47:04;;;;;;;11.97;7.40;;;;;;;11.30;49.32;98729.56;8320219;28;20248;-60
2022/03/15 10:51:09;;;;;;;14.20;7.40;;;;;;;11.64;48.48;98718.81;8320120;28;20639;-60
2022/03/15 10:55:17;;;;;;;17.73;9.40;;;;;;;11.68;48.54;98715.22;8320152;28;20239;-59
2022/03/15 10:59:21;;;;;;;22.23;12.53;;;;;;;11.42;49.05;98704.94;8319908;28;20236;-60
2022/03/15 11:03:29;;;;;;;26.47;13.43;;;;;;;11.59;48.71;98704.31;8319460;28;20424;-60
2022/03/15 11:07:38;;;;;;;20.57;11.77;;;;;;;11.11;50.31;98688.72;8319297;28;20254;-60
2022/03/15 11:11:42;;;;;;;23.87;12.23;;;;;;;11.37;49.64;98673.16;8319697;28;20248;-59
2022/03/15 11:15:48;;;;;;;21.90;12.67;;;;;;;11.42;49.91;98671.22;8319508;28;20261;-60
2022/03/15 11:19:56;;;;;;;23.00;13.37;;;;;;;11.15;50.00;98666.97;8319341;28;20347;-59
2022/03/15 11:24:00;;;;;;;29.67;12.27;;;;;;;10.99;50.94;98662.41;8319352;28;20381;-60
2022/03/15 11:28:06;;;;;;;19.73;11.47;;;;;;;11.53;49.51;98640.56;8318746;28;20229;-59
2022/03/15 11:32:12;;;;;;;28.40;12.30;;;;;;;11.64;48.63;98641.00;8317560;28;20232;-59
2022/03/15 11:36:18;;;;;;;27.73;13.33;;;;;;;11.16;49.82;98649.69;8318544;28;20243;-59
2022/03/15 11:40:22;;;;;;;25.37;12.60;;;;;;;11.30;49.41;98644.00;8318574;28;20241;-59
2022/03/15 11:44:32;;;;;;;25.93;13.23;;;;;;;11.63;48.59;98634.13;8318143;28;20237;-60
2022/03/15 11:48:44;;;;;;;20.53;12.37;;;;;;;11.55;48.58;98634.38;8317694;28;20232;-60
2022/03/15 11:52:58;;;;;;;22.47;12.93;;;;;;;11.69;48.64;98623.50;8318414;28;20233;-59
2022/03/15 11:57:04;;;;;;;25.10;13.47;;;;;;;11.44;48.87;98630.50;8317937;28;20551;-59
2022/03/15 12:01:13;;;;;;;22.17;12.60;;;;;;;11.75;48.41;98617.25;8317961;28;20235;-59
2022/03/15 12:05:18;;;;;;;25.33;12.93;;;;;;;11.92;47.52;98601.88;8317795;28;20957;-59
2022/03/15 12:09:25;;;;;;;19.10;12.50;;;;;;;11.88;47.81;98596.81;8317367;28;20260;-59
2022/03/15 12:13:34;;;;;;;17.83;12.97;;;;;;;11.97;47.29;98598.25;8317950;28;20228;-60
2022/03/15 12:17:39;;;;;;;16.47;13.20;;;;;;;11.64;48.06;98590.88;8317106;28;20239;-60
2022/03/15 12:21:50;;;;;;;16.27;13.03;;;;;;;11.48;48.45;98586.25;8317461;28;20253;-59
2022/03/15 12:25:55;;;;;;;19.80;14.03;;;;;;;11.51;48.74;98580.09;8317552;28;20232;-61
2022/03/15 12:30:00;;;;;;;16.83;13.23;;;;;;;11.79;47.79;98574.69;8316494;28;20415;-58
2022/03/15 12:34:04;;;;;;;23.27;14.03;;;;;;;12.06;47.57;98571.94;8316793;28;20237;-58
2022/03/15 12:38:08;;;;;;;21.90;13.97;;;;;;;11.76;48.01;98555.81;8302557;28;20225;-58
2022/03/15 12:42:14;;;;;;;16.33;13.80;;;;;;;12.06;47.34;98536.41;8299154;28;20222;-58
2022/03/15 12:46:18;;;;;;;20.00;14.13;;;;;;;12.53;46.22;98530.16;8299421;28;20422;-61
2022/03/15 12:50:21;;;;;;;15.87;13.50;;;;;;;12.10;47.34;98524.16;8299293;28;20416;-60
2022/03/15 12:54:27;;;;;;;18.17;13.60;;;;;;;11.97;47.64;98510.00;8299373;28;20234;-61
2022/03/15 12:58:32;;;;;;;14.33;12.77;;;;;;;12.29;46.80;98493.91;8299240;28;20536;-60
2022/03/15 13:02:37;;;;;;;14.73;12.57;;;;;;;12.35;46.90;98508.38;8298035;28;20221;-60
2022/03/15 13:06:42;;;;;;;18.13;13.20;;;;;;;12.39;46.74;98486.56;8298741;28;20292;-60
2022/03/15 13:10:47;;;;;;;15.97;13.70;;;;;;;12.12;47.18;98473.00;8298800;28;20431;-61
2022/03/15 13:14:55;;;;;;;16.30;13.27;;;;;;;12.08;47.12;98455.88;8298639;28;20233;-61
2022/03/15 13:18:58;;;;;;;16.07;12.90;;;;;;;12.35;46.99;98445.22;8298417;28;20225;-61
2022/03/15 13:23:03;;;;;;;18.73;12.70;;;;;;;12.37;46.63;98454.63;8298524;28;20224;-61
2022/03/15 13:27:07;;;;;;;17.50;12.90;;;;;;;12.41;46.40;98453.56;8298196;28;20233;-61
2022/03/15 13:31:13;;;;;;;17.33;12.37;;;;;;;12.28;46.29;98440.31;8298295;28;20232;-58
2022/03/15 13:35:23;;;;;;;18.20;13.37;;;;;;;12.13;47.46;98431.41;8313131;28;20260;-58
2022/03/15 13:39:26;;;;;;;17.87;12.90;;;;;;;12.26;47.14;98430.88;8310793;28;20543;-58
2022/03/15 13:43:32;;;;;;;15.13;11.70;;;;;;;12.44;46.93;98437.03;8282459;28;20632;-57
2022/03/15 13:47:36;;;;;;;18.37;12.00;;;;;;;12.17;47.84;98419.16;8311678;28;20433;-58
2022/03/15 13:51:40;;;;;;;17.77;12.47;;;;;;;12.26;48.21;98415.28;8287338;28;20252;-58
2022/03/15 13:55:43;;;;;;;17.67;12.20;;;;;;;12.39;49.16;98411.22;8282033;28;20233;-58
2022/03/15 13:59:54;;;;;;;17.07;11.63;;;;;;;12.39;48.96;98403.44;8281883;28;20241;-59
2022/03/15 14:04:04;;;;;;;16.50;11.53;;;;;;;12.29;49.60;98403.00;8281932;28;20229;-58
2022/03/15 14:08:09;;;;;;;17.83;11.87;;;;;;;12.28;49.73;98390.97;8282320;28;20550;-58
2022/03/15 14:12:14;;;;;;;13.90;11.70;;;;;;;12.40;50.85;98386.97;8281929;28;20260;-58
2022/03/15 14:16:21;;;;;;;15.43;11.27;;;;;;;12.33;51.46;98378.59;8281837;28;20587;-58
2022/03/15 14:20:32;;;;;;;14.57;11.50;;;;;;;12.50;51.35;98371.81;8282185;28;20518;-58
2022/03/15 14:24:35;;;;;;;19.43;11.37;;;;;;;12.43;51.33;98353.06;8281659;28;20237;-59
2022/03/15 14:28:40;;;;;;;14.47;10.83;;;;;;;12.38;51.43;98343.81;8281493;28;20280;-59
2022/03/15 14:32:53;;;;;;;16.40;11.67;;;;;;;12.36;51.79;98325.69;8281257;28;20240;-59
2022/03/15 14:37:11;;;;;;;12.33;10.90;;;;;;;12.32;51.38;98317.19;8281544;28;20777;-59
2022/03/15 14:41:15;;;;;;;13.67;11.00;;;;;;;12.22;50.93;98315.94;8281382;28;20552;-58
2022/03/15 14:45:19;;;;;;;14.00;10.50;;;;;;;11.97;52.35;98310.97;8292461;28;20229;-59
2022/03/15 14:49:23;;;;;;;15.47;10.57;;;;;;;12.09;51.81;98301.81;8313929;28;20239;-58
2022/03/15 14:53:30;;;;;;;12.80;11.03;;;;;;;11.97;52.49;98284.19;8313963;28;20275;-58
2022/03/15 14:57:35;;;;;;;14.67;11.20;;;;;;;11.82;52.81;98286.53;8313325;28;20256;-59
2022/03/15 15:01:38;;;;;;;14.67;10.90;;;;;;;11.93;51.76;98275.69;8313665;28;20302;-62
2022/03/15 15:05:42;;;;;;;15.17;10.83;;;;;;;12.09;51.22;98274.09;8317697;28;20229;-61
2022/03/15 15:09:48;;;;;;;15.13;10.63;;;;;;;12.12;51.45;98270.50;8319319;28;20319;-62
2022/03/15 15:13:52;;;;;;;14.77;10.83;;;;;;;12.23;52.32;98263.06;8319356;28;20263;-61
2022/03/15 15:17:55;;;;;;;15.40;11.70;;;;;;;12.16;52.28;98247.84;8319092;28;20380;-61
2022/03/15 15:22:00;;;;;;;16.77;13.37;;;;;;;12.13;53.22;98247.09;8319000;28;20240;-61
2022/03/15 15:26:05;;;;;;;18.83;14.03;;;;;;;12.32;52.93;98238.44;8319001;28;20233;-61
2022/03/15 15:30:08;;;;;;;15.57;13.17;;;;;;;12.21;53.45;98238.94;8318592;28;20266;-62
2022/03/15 15:34:12;;;;;;;14.57;12.63;;;;;;;12.37;53.90;98233.03;8318666;28;20233;-62
2022/03/15 15:38:18;;;;;;;16.17;12.57;;;;;;;12.33;54.37;98240.94;8318683;28;20232;-62
2022/03/15 15:42:22;;;;;;;21.33;13.80;;;;;;;12.26;56.42;98244.78;8319120;28;20390;-61
2022/03/15 15:46:25;;;;;;;20.13;13.10;;;;;;;12.24;57.20;98272.56;8318160;28;20245;-61
2022/03/15 15:50:30;;;;;;;22.90;13.37;;;;;;;12.25;57.56;98268.22;8318264;28;20244;-61
2022/03/15 15:54:34;;;;;;;28.17;14.97;;;;;;;12.16;59.31;98266.03;8317218;28;20240;-62
2022/03/15 15:58:39;;;;;;;19.47;13.93;;;;;;;12.12;59.30;98263.56;8318177;28;20244;-61
2022/03/15 16:02:42;;;;;;;26.40;15.83;;;;;;;12.20;59.77;98271.00;8318203;28;20233;-61
2022/03/15 16:06:47;;;;;;;26.17;19.70;;;;;;;12.12;60.64;98283.50;8317232;28;20236;-62
2022/03/15 16:10:50;;;;;;;45.07;17.13;;;;;;;12.15;60.78;98292.88;8317068;28;20236;-61
2022/03/15 16:14:54;;;;;;;20.00;15.67;;;;;;;12.17;60.53;98301.47;8316873;28;20312;-61
2022/03/15 16:18:57;;;;;;;18.27;13.00;;;;;;;12.01;61.14;98272.75;8284982;28;20246;-61
2022/03/15 16:23:04;;;;;;;26.27;20.10;;;;;;;11.71;62.23;98268.00;8284294;28;20233;-61
2022/03/15 16:27:08;;;;;;;22.80;14.70;;;;;;;11.78;61.84;98268.56;8284510;28;20257;-61
2022/03/15 16:31:14;;;;;;;22.27;15.37;;;;;;;11.75;62.15;98256.59;8284318;28;20251;-61
2022/03/15 16:35:17;;;;;;;20.03;14.00;;;;;;;11.70;62.18;98274.94;8284266;28;20255;-61
2022/03/15 16:39:40;;;;;;;21.93;17.43;;;;;;;11.80;61.58;98277.13;8283668;28;20229;-61
2022/03/15 16:43:43;;;;;;;20.47;16.00;;;;;;;11.75;62.23;98298.09;8283928;28;20233;-60
2022/03/15 16:47:48;;;;;;;20.37;14.57;;;;;;;11.74;62.38;98286.84;8315447;28;20268;-63
2022/03/15 16:51:51;;;;;;;19.47;13.83;;;;;;;11.74;62.47;98265.25;8316352;28;20240;-61
2022/03/15 16:55:54;;;;;;;20.30;15.87;;;;;;;11.51;63.25;98254.13;8299041;28;20414;-62
2022/03/15 16:59:57;;;;;;;39.03;28.83;;;;;;;11.72;62.46;98267.09;8312274;28;20229;-61
2022/03/15 17:08:22;;;;;;;29.53;23.23;;;;;;;11.70;62.34;98269.75;8283462;28;20248;-61
2022/03/15 17:12:35;;;;;;;21.37;17.13;;;;;;;11.74;61.98;98266.09;8283250;28;20497;-60
2022/03/15 17:16:39;;;;;;;20.13;16.17;;;;;;;11.80;62.13;98256.38;8306618;28;20287;-61
2022/03/15 17:20:45;;;;;;;22.33;18.30;;;;;;;11.82;62.04;98259.72;8315944;28;20241;-61
2022/03/15 17:24:52;;;;;;;25.80;19.87;;;;;;;11.82;62.31;98249.34;8304259;28;20252;-61
2022/03/15 17:29:01;;;;;;;28.03;20.50;;;;;;;11.71;63.25;98247.25;8303134;28;20239;-61
2022/03/15 17:33:05;;;;;;;22.30;16.27;;;;;;;11.61;63.59;98246.78;8315270;28;20229;-61
2022/03/15 17:37:19;;;;;;;19.23;15.50;;;;;;;11.70;62.88;98248.16;8293122;28;20240;-62
2022/03/15 17:41:24;;;;;;;16.03;13.73;;;;;;;11.77;62.69;98253.94;8298023;28;20562;-62
2022/03/15 17:45:28;;;;;;;16.60;12.80;;;;;;;11.54;63.79;98251.44;8291859;28;20252;-62
2022/03/15 17:49:31;;;;;;;13.90;10.43;;;;;;;11.59;63.61;98247.78;8281830;28;20236;-65
2022/03/15 17:53:36;;;;;;;15.30;9.43;;;;;;;11.63;63.59;98254.50;8291601;28;20426;-62
2022/03/15 17:57:40;;;;;;;12.00;8.80;;;;;;;11.63;63.60;98257.09;8311622;28;20418;-63
2022/03/15 18:01:43;;;;;;;11.80;9.13;;;;;;;11.52;64.01;98258.44;8287455;28;20237;-62
2022/03/15 18:05:50;;;;;;;11.63;8.37;;;;;;;11.74;63.08;98260.06;8281956;28;20237;-62
2022/03/15 18:09:55;;;;;;;13.80;8.87;;;;;;;11.73;63.42;98264.44;8281805;28;20230;-62
2022/03/15 18:13:59;;;;;;;14.00;8.90;;;;;;;11.73;63.74;98268.78;8282166;28;20229;-63
2022/03/15 18:18:02;;;;;;;19.07;8.30;;;;;;;11.87;69.56;98263.81;8305072;28;20235;-62
2022/03/15 18:22:06;;;;;;;18.67;7.30;;;;;;;13.65;68.59;98264.81;8313714;28;20228;-62
2022/03/15 18:26:11;;;;;;;11.70;7.57;;;;;;;13.99;61.66;98267.38;8314542;28;20229;-61
2022/03/15 18:30:15;;;;;;;15.20;12.67;;;;;;;12.92;60.39;98271.94;8314372;28;20232;-63
2022/03/15 18:34:20;;;;;;;13.60;10.50;;;;;;;12.50;61.45;98273.91;8314130;28;20233;-62
2022/03/15 18:38:25;;;;;;;18.23;10.73;;;;;;;12.43;61.70;98267.34;8315194;28;20237;-61
2022/03/15 18:42:30;;;;;;;12.40;10.57;;;;;;;12.34;62.26;98278.16;8320532;28;20232;-62
2022/03/15 18:46:35;;;;;;;19.60;13.03;;;;;;;12.19;62.30;98269.34;8298108;28;20414;-62
2022/03/15 18:50:40;;;;;;;15.30;12.50;;;;;;;12.13;62.73;98272.22;8287662;28;20549;-58
2022/03/15 18:54:43;;;;;;;17.77;13.00;;;;;;;12.04;62.98;98278.66;8287833;28;20233;-58
2022/03/15 18:58:47;;;;;;;14.47;11.63;;;;;;;12.04;62.53;98283.00;8287807;28;20237;-59
2022/03/15 19:02:52;;;;;;;14.07;11.23;;;;;;;11.86;63.53;98279.44;8288247;28;20240;-59